Fort Knox, KY (40122)

9:10 PM EDT on July 20, 2017 (GMT -0400)
Prairie View Estates | | Change Station
Active Advisory: Heat Advisory

Elev 722 ft 37.85 °N, 85.98 °W | Updated 2 seconds ago

Mostly Cloudy
Mostly Cloudy
82.8 °F
Feels Like 92 °F
N
0.0
Wind Variable Wind from SE

Today
High -- | Low -- °F
--% Chance of Precip.
Yesterday
High -- | Low -- °F
Precip. -- in
Pressure 30.00 in
Visibility 10.0 miles
Clouds Scattered Clouds 15000 ft
Mostly Cloudy 20000 ft
Heat Index 92 °F
Dew Point 77 °F
Humidity 83%
Rainfall 0.00 in
Snow Depth Not available.
6:37 AM 9:02 PM
Waning Crescent, 8% visible
METAR KFTK 210058Z 00000KT 10SM SCT150 BKN200 29/23 A3001 RMK AO2A SLP157 T02870225
Pressure 30.00 in
Visibility 10.0 miles
Clouds Scattered Clouds 15000 ft
Mostly Cloudy 20000 ft
Heat Index 92 °F
Dew Point 77 °F
Humidity 83%
Rainfall 0.00 in
Snow Depth Not available.
6:37 AM 9:02 PM
Waning Crescent, 8% visible
METAR KFTK 210058Z 00000KT 10SM SCT150 BKN200 29/23 A3001 RMK AO2A SLP157 T02870225

Get Your Daily Forecast Email!

Thanks for signing up!

Be on the lookout for a verification email in your inbox.

You'll start receiving severe weather alerts in your inbox..

×

10-Day Weather Forecast

Almanac

Astronomy

Jul. 20, 2017 Rise Set
Actual Time
Civil Twilight
Nautical Twilight
Astronomical Twilight
Moon
Length of Visible Light
Length of Day
Tomorrow will be .
, % of the Moon is Illuminated

Today's Extremes

State Highs State Lows

Community

WunderPhotos

Category 6

Welcome to Category 6. This is the collective home for Weather Underground's featured writeups by Dr. Jeff Masters (right), Bob Henson (left), Chris Burt, and other regular contributors.

Nearby

Air Quality

  Air Quality AQ Index Pollutant
Not available.

Snow Depth

Station Depth Elevation

Earthquake Activity

City Distance Mag. Time & Date
Minimum magnitude displayed is 2.5.

Coastal Water Temperatures

Place Temperature

Stations

Nearby Weather Stations

Station Location Temp. Windchill Dew Point Humidity Wind Precip. Elev Updated Type
                   

Watches & Warnings

Heat Advisory
Issued: 2:09 PM CDT Jul. 20, 2017 – National Weather Service

... Heat advisory now in effect from noon EDT /11 am CDT/ Friday
to 8 PM EDT /7 PM CDT/ Saturday...

* heat index values... peak heat index values 105 to 108 Friday and
Saturday afternoons.

* Impacts... the combination of hot temperatures and high
humidity will lead to an increased risk of heat related stress
and illnesses. The very Young, the elderly, those without air
conditioning, and those participating in strenuous outdoor
activities will be the most susceptible.

Precautionary/preparedness actions...

Take extra precautions... if you work or spend time outside. When
possible... reschedule strenuous activities to early morning or
evening. Know the signs and symptoms of heat exhaustion and heat
stroke. Wear light weight and loose fitting clothing when
possible and drink plenty of water.



Zt